LEMH/MAH METAR and TAF weather

Enter ICAO airport designator
Station Type Date Time Source
LEMH METAR 2022/06/28 15:00 UTC NOAA

LEMH 281500Z 18011KT 150V230 9999 FEW015 27/17 Q1016


Station Type Date Time Source
LEMH Decoded METAR 2022/06/28 15:00 UTC NOAA

Menorca / Mahon, Spain (LEMH) 39-52N 004-14E 82M
Jun 28, 2022 - 11:00 AM EDT / 2022.06.28 1500 UTC
Wind: from the S (180 degrees) at 13 MPH (11 KT) (direction variable):0
Visibility: greater than 7 mile(s):0
Sky conditions: mostly clear
Temperature: 80 F (27 C)
Dew Point: 62 F (17 C)
Relative Humidity: 54%
Pressure (altimeter): 30.00 in. Hg (1016 hPa)
ob: LEMH 281500Z 18011KT 150V230 9999 FEW015 27/17 Q1016
cycle: 15

Station Type Date Time Source
LEMH TAF 2022/06/28 15:30 UTC NOAA

TAF LEMH 281400Z 2815/2915 20009KT 9999 BKN020 TX29/2912Z TN21/2906Z
BECMG 2910/2912 15010KT

Example: see airport list